createdAt,value
2018-11-05T00:00:01.081Z,10.75
2018-11-05T00:02:29.303Z,10.13
2018-11-05T00:04:57.554Z,10.25
2018-11-05T00:07:25.791Z,10.10
2018-11-05T00:09:54.022Z,9.73
2018-11-05T00:12:22.281Z,9.03
2018-11-05T00:14:50.497Z,9.75
2018-11-05T00:17:18.750Z,9.55
2018-11-05T00:19:47.003Z,9.18
2018-11-05T00:22:15.244Z,8.95
2018-11-05T00:24:43.470Z,10.40
2018-11-05T00:27:11.694Z,10.13
2018-11-05T00:29:39.933Z,9.98
2018-11-05T00:32:08.168Z,10.38
2018-11-05T00:34:36.398Z,8.60
2018-11-05T00:37:04.805Z,8.30
2018-11-05T00:39:32.978Z,9.05
2018-11-05T00:42:01.287Z,8.33
2018-11-05T00:44:29.462Z,9.28
2018-11-05T00:46:58.082Z,8.60
2018-11-05T00:49:26.332Z,8.43
2018-11-05T00:51:54.578Z,8.60
2018-11-05T00:54:22.770Z,8.15
2018-11-05T00:56:51.002Z,8.93
2018-11-05T00:59:19.194Z,9.23
2018-11-05T01:01:47.476Z,9.30
2018-11-05T01:04:15.649Z,7.62
2018-11-05T01:06:43.884Z,8.55
2018-11-05T01:09:12.137Z,8.43
2018-11-05T01:11:40.340Z,8.15
2018-11-05T01:14:08.993Z,8.85
2018-11-05T01:16:37.311Z,9.88
2018-11-05T01:19:06.020Z,8.13
2018-11-05T01:21:34.385Z,8.60
2018-11-05T01:24:02.602Z,11.25
2018-11-05T01:26:30.867Z,8.25
2018-11-05T01:28:59.059Z,6.78
2018-11-05T01:31:27.343Z,7.05
2018-11-05T01:33:55.857Z,7.15
2018-11-05T01:36:24.211Z,7.83
2018-11-05T01:38:52.472Z,7.20
2018-11-05T01:41:20.657Z,7.30
2018-11-05T01:43:49.037Z,6.20
2018-11-05T01:46:17.261Z,7.72
2018-11-05T01:48:45.474Z,8.38
2018-11-05T01:51:13.714Z,7.17
2018-11-05T01:53:41.896Z,6.95
2018-11-05T01:56:10.148Z,6.95
2018-11-05T01:58:38.393Z,7.25
2018-11-05T02:01:06.608Z,7.15
2018-11-05T02:03:34.833Z,7.20
2018-11-05T02:06:03.053Z,6.10
2018-11-05T02:08:31.277Z,6.45
2018-11-05T02:10:59.565Z,5.80
2018-11-05T02:13:27.815Z,6.03
2018-11-05T02:15:56.021Z,5.45
2018-11-05T02:18:24.193Z,5.47
2018-11-05T02:20:52.391Z,5.75
2018-11-05T02:23:20.661Z,6.00
2018-11-05T02:25:48.889Z,7.28
2018-11-05T02:28:17.122Z,6.05
2018-11-05T02:30:45.347Z,6.25
2018-11-05T02:33:13.577Z,6.10
2018-11-05T02:35:41.781Z,5.75
2018-11-05T02:38:10.024Z,6.08
2018-11-05T02:40:38.213Z,5.75
2018-11-05T02:43:06.459Z,6.70
2018-11-05T02:45:34.657Z,6.00
2018-11-05T02:48:02.882Z,5.37
2018-11-05T02:50:31.099Z,5.72
2018-11-05T02:52:59.295Z,5.90
2018-11-05T02:55:27.517Z,6.15
2018-11-05T02:57:55.706Z,5.30
2018-11-05T03:00:23.931Z,5.25
2018-11-05T03:02:52.159Z,4.95
2018-11-05T03:05:20.516Z,5.03
2018-11-05T03:07:49.402Z,5.08
2018-11-05T03:10:17.816Z,5.30
2018-11-05T03:12:46.833Z,5.17
2018-11-05T03:15:16.163Z,4.60
2018-11-05T03:17:44.361Z,4.50
2018-11-05T03:20:13.521Z,4.87
2018-11-05T03:22:42.121Z,4.25
2018-11-05T03:25:10.382Z,4.70
2018-11-05T03:27:38.961Z,4.10
2018-11-05T03:30:09.255Z,4.12
2018-11-05T03:32:37.543Z,4.67
2018-11-05T03:35:06.938Z,4.60
2018-11-05T03:37:35.177Z,4.60
2018-11-05T03:40:03.458Z,4.85
2018-11-05T03:42:31.685Z,4.83
2018-11-05T03:44:59.911Z,4.40
2018-11-05T03:47:28.114Z,4.97
2018-11-05T03:49:56.353Z,6.08
2018-11-05T03:52:24.637Z,4.95
2018-11-05T03:54:52.850Z,5.92
2018-11-05T03:57:21.073Z,4.65
2018-11-05T03:59:49.251Z,4.97
2018-11-05T04:02:17.505Z,4.70
2018-11-05T04:04:45.692Z,4.90
2018-11-05T04:07:13.971Z,4.87
2018-11-05T04:09:42.229Z,4.00
2018-11-05T04:12:10.481Z,4.45
2018-11-05T04:14:38.722Z,4.97
2018-11-05T04:17:07.027Z,4.03
2018-11-05T04:19:35.271Z,4.00
2018-11-05T04:22:03.505Z,3.70
2018-11-05T04:24:31.700Z,3.72
2018-11-05T04:26:59.913Z,3.25
2018-11-05T04:29:28.094Z,3.40
2018-11-05T04:31:56.318Z,3.10
2018-11-05T04:34:24.548Z,2.72
2018-11-05T04:36:52.756Z,2.20
2018-11-05T04:39:20.957Z,2.45
2018-11-05T04:41:49.161Z,2.30
2018-11-05T04:44:17.374Z,2.90
2018-11-05T04:46:45.574Z,2.90
2018-11-05T04:49:13.800Z,3.55
2018-11-05T04:51:42.029Z,3.52
2018-11-05T04:54:10.207Z,2.77
2018-11-05T04:56:38.409Z,3.20
2018-11-05T04:59:06.875Z,3.75
2018-11-05T05:01:35.240Z,3.58
2018-11-05T05:04:03.446Z,3.33
2018-11-05T05:06:31.688Z,3.50
2018-11-05T05:08:59.874Z,3.45
2018-11-05T05:11:28.101Z,3.83
2018-11-05T05:13:56.435Z,4.00
2018-11-05T05:16:24.741Z,3.37
2018-11-05T05:18:53.006Z,3.30
2018-11-05T05:21:21.265Z,3.15
2018-11-05T05:23:49.484Z,3.47
2018-11-05T05:26:24.213Z,3.98
2018-11-05T05:28:52.569Z,3.20
2018-11-05T05:31:20.793Z,2.90
2018-11-05T05:33:48.985Z,3.52
2018-11-05T05:36:17.235Z,3.70
2018-11-05T05:38:45.450Z,3.72
2018-11-05T05:41:13.743Z,4.65
2018-11-05T05:43:42.025Z,5.00
2018-11-05T05:46:10.277Z,4.75
2018-11-05T05:48:38.515Z,4.70
2018-11-05T05:51:06.765Z,4.12
2018-11-05T05:53:34.976Z,4.67
2018-11-05T05:56:03.208Z,5.10
2018-11-05T05:58:31.394Z,5.10
2018-11-05T06:00:59.626Z,5.40
2018-11-05T06:03:27.797Z,5.60
2018-11-05T06:05:56.100Z,4.10
2018-11-05T06:08:24.229Z,3.70
2018-11-05T06:10:52.464Z,4.28
2018-11-05T06:13:20.694Z,4.00
2018-11-05T06:15:48.957Z,5.28
2018-11-05T06:18:17.173Z,5.20
2018-11-05T06:20:45.466Z,4.10
2018-11-05T06:23:13.806Z,4.28
2018-11-05T06:25:42.129Z,5.10
2018-11-05T06:28:10.373Z,5.30
2018-11-05T06:30:38.587Z,4.83
2018-11-05T06:33:06.813Z,5.53
2018-11-05T06:35:35.136Z,5.05
2018-11-05T06:38:03.409Z,4.30
2018-11-05T06:40:31.605Z,4.97
2018-11-05T06:42:59.830Z,5.05
2018-11-05T06:45:28.096Z,4.72
2018-11-05T06:47:56.309Z,4.47
2018-11-05T06:50:25.433Z,5.03
2018-11-05T06:52:53.744Z,5.00
2018-11-05T06:55:22.350Z,4.58
2018-11-05T06:57:50.612Z,5.15
2018-11-05T07:00:22.746Z,5.53
2018-11-05T07:02:50.999Z,4.65
2018-11-05T07:05:19.277Z,6.20
2018-11-05T07:07:47.485Z,5.75
2018-11-05T07:10:16.321Z,5.33
2018-11-05T07:12:44.849Z,6.35
2018-11-05T07:15:14.326Z,5.90
2018-11-05T07:17:43.477Z,6.62
2018-11-05T07:20:13.409Z,7.60
2018-11-05T07:22:41.761Z,7.03
2018-11-05T07:25:11.572Z,7.12
2018-11-05T07:27:39.908Z,7.20
2018-11-05T07:30:13.982Z,6.33
2018-11-05T07:32:42.240Z,6.03
2018-11-05T07:35:12.062Z,5.80
2018-11-05T07:37:40.469Z,5.85
2018-11-05T07:40:10.141Z,5.60
2018-11-05T07:42:38.673Z,6.25
2018-11-05T07:45:08.685Z,6.40
2018-11-05T07:47:36.918Z,6.80
2018-11-05T07:50:07.265Z,6.08
2018-11-05T07:52:35.480Z,5.95
2018-11-05T07:55:03.837Z,6.00
2018-11-05T07:57:32.072Z,6.72
2018-11-05T08:00:00.306Z,7.25
2018-11-05T08:02:28.530Z,7.15
2018-11-05T08:04:56.712Z,8.68
2018-11-05T08:07:24.938Z,8.65
2018-11-05T08:09:53.210Z,9.15
2018-11-05T08:12:21.410Z,8.55
2018-11-05T08:14:49.618Z,7.90
2018-11-05T08:17:17.781Z,8.70
2018-11-05T08:19:45.989Z,8.60
2018-11-05T08:22:14.213Z,8.10
2018-11-05T08:24:42.398Z,8.20
2018-11-05T08:27:10.717Z,8.78
2018-11-05T08:29:38.998Z,8.50
2018-11-05T08:32:07.338Z,8.78
2018-11-05T08:34:35.559Z,8.73
2018-11-05T08:37:03.741Z,8.83
2018-11-05T08:39:31.960Z,9.58
2018-11-05T08:42:00.154Z,8.73
2018-11-05T08:44:28.377Z,9.80
2018-11-05T08:46:56.671Z,8.78
2018-11-05T08:49:24.792Z,9.00
2018-11-05T08:51:53.164Z,8.45
2018-11-05T08:54:22.381Z,8.70
2018-11-05T08:56:51.739Z,7.62
2018-11-05T08:59:20.434Z,8.25
2018-11-05T09:01:48.648Z,9.58
2018-11-05T09:04:16.838Z,7.78
2018-11-05T09:06:45.076Z,7.72
2018-11-05T09:09:13.392Z,6.72
2018-11-05T09:11:41.642Z,6.47
2018-11-05T09:14:09.844Z,6.58
2018-11-05T09:16:38.042Z,6.67
2018-11-05T09:19:06.357Z,7.92
2018-11-05T09:21:34.588Z,7.15
2018-11-05T09:24:02.804Z,8.20
2018-11-05T09:26:31.028Z,8.78
2018-11-05T09:28:59.246Z,9.23
2018-11-05T09:31:27.507Z,9.05
2018-11-05T09:33:55.729Z,9.03
2018-11-05T09:36:23.900Z,10.82
2018-11-05T09:38:52.138Z,9.50
2018-11-05T09:41:20.388Z,8.53
2018-11-05T09:43:48.817Z,8.53
2018-11-05T09:46:17.080Z,7.83
2018-11-05T09:48:45.484Z,8.35
2018-11-05T09:51:13.746Z,8.30
2018-11-05T09:53:41.923Z,6.93
2018-11-05T09:56:10.146Z,6.97
2018-11-05T09:58:38.426Z,7.33
2018-11-05T10:01:06.661Z,7.70
2018-11-05T10:04:08.630Z,5.43
2018-11-05T10:06:36.825Z,4.90
2018-11-05T10:09:07.939Z,5.30
2018-11-05T10:11:36.266Z,5.40
2018-11-05T10:14:04.510Z,5.67
2018-11-05T10:16:32.853Z,4.23
2018-11-05T10:19:01.032Z,4.67
2018-11-05T10:21:29.257Z,5.30
2018-11-05T10:23:57.544Z,5.10
2018-11-05T10:26:25.862Z,5.20
2018-11-05T10:28:54.083Z,5.13
2018-11-05T10:31:24.794Z,5.20
2018-11-05T10:33:53.041Z,4.90
2018-11-05T10:36:21.804Z,5.30
2018-11-05T10:38:50.030Z,5.20
2018-11-05T10:41:18.665Z,4.80
2018-11-05T10:43:46.914Z,4.40
2018-11-05T10:46:15.131Z,5.13
2018-11-05T10:48:43.358Z,4.40
2018-11-05T10:51:11.716Z,5.10
2018-11-05T10:53:39.806Z,4.57
2018-11-05T10:56:08.039Z,4.43
2018-11-05T10:58:36.205Z,4.87
2018-11-05T11:01:09.990Z,5.30
2018-11-05T11:03:38.827Z,4.17
2018-11-05T11:06:08.320Z,4.00
2018-11-05T11:08:36.518Z,5.13
2018-11-05T11:11:05.211Z,4.57
2018-11-05T11:13:33.406Z,5.00
2018-11-05T11:16:01.615Z,4.27
2018-11-05T11:18:29.813Z,4.70
2018-11-05T11:20:57.998Z,5.47
2018-11-05T11:23:26.218Z,5.13
2018-11-05T11:25:54.432Z,6.87
2018-11-05T11:28:22.653Z,4.33
2018-11-05T11:30:50.887Z,5.67
2018-11-05T11:33:19.137Z,4.40
2018-11-05T11:35:47.437Z,4.77
2018-11-05T11:38:15.673Z,4.50
2018-11-05T11:40:43.888Z,4.60
2018-11-05T11:43:12.120Z,3.60
2018-11-05T11:45:40.285Z,3.03
2018-11-05T11:48:08.498Z,3.73
2018-11-05T11:50:36.686Z,3.30
2018-11-05T11:53:05.054Z,3.30
2018-11-05T11:55:33.285Z,3.73
2018-11-05T11:58:01.490Z,4.10
2018-11-05T12:00:29.749Z,3.40
2018-11-05T12:02:57.950Z,3.90
2018-11-05T12:05:26.259Z,3.70
2018-11-05T12:07:54.458Z,3.13
2018-11-05T12:10:23.888Z,3.60
2018-11-05T12:12:52.118Z,3.37
2018-11-05T12:15:21.188Z,3.40
2018-11-05T12:17:51.747Z,3.23
2018-11-05T12:20:21.143Z,2.90
2018-11-05T12:22:49.913Z,2.83
2018-11-05T12:25:18.119Z,2.87
2018-11-05T12:27:46.389Z,2.87
2018-11-05T12:30:16.908Z,2.97
2018-11-05T12:32:45.966Z,2.67
2018-11-05T12:35:14.285Z,2.50
2018-11-05T12:37:43.774Z,2.40
2018-11-05T12:40:13.903Z,3.10
2018-11-05T12:42:42.849Z,2.13
2018-11-05T12:45:11.208Z,2.70
2018-11-05T12:47:39.625Z,2.73
2018-11-05T12:50:12.348Z,2.93
2018-11-05T12:52:40.782Z,2.60
2018-11-05T12:55:09.497Z,2.77
2018-11-05T12:57:37.714Z,2.50
2018-11-05T13:00:08.480Z,3.10
2018-11-05T13:02:36.831Z,2.90
2018-11-05T13:05:06.081Z,2.37
2018-11-05T13:07:34.396Z,2.63
2018-11-05T13:10:03.907Z,2.80
2018-11-05T13:12:32.210Z,2.43
2018-11-05T13:15:00.452Z,2.80
2018-11-05T13:17:28.711Z,4.70
2018-11-05T13:19:57.143Z,4.50
2018-11-05T13:22:25.499Z,3.50
2018-11-05T13:24:53.730Z,2.93
2018-11-05T13:27:21.957Z,2.90
2018-11-05T13:29:50.190Z,3.20
2018-11-05T13:32:18.418Z,2.97
2018-11-05T13:34:46.661Z,2.70
2018-11-05T13:37:14.985Z,2.70
2018-11-05T13:39:43.174Z,2.70
2018-11-05T13:42:11.450Z,2.63
2018-11-05T13:44:39.649Z,2.90
2018-11-05T13:47:08.467Z,3.37
2018-11-05T13:49:36.359Z,2.77
2018-11-05T13:52:04.667Z,2.63
2018-11-05T13:54:33.087Z,3.50
2018-11-05T13:57:01.203Z,2.60
2018-11-05T13:59:29.449Z,3.07
2018-11-05T14:01:57.697Z,3.27
2018-11-05T14:04:26.006Z,3.03
2018-11-05T14:06:54.459Z,2.70
2018-11-05T14:09:22.699Z,3.37
2018-11-05T14:11:50.878Z,3.20
2018-11-05T14:14:19.109Z,2.80
2018-11-05T14:16:47.314Z,3.10
2018-11-05T14:19:15.591Z,3.10
2018-11-05T14:21:43.797Z,3.03
2018-11-05T14:24:12.050Z,3.40
2018-11-05T14:26:40.289Z,3.07
2018-11-05T14:29:08.903Z,2.27
2018-11-05T14:31:36.721Z,2.73
2018-11-05T14:34:04.927Z,2.87
2018-11-05T14:36:33.169Z,2.67
2018-11-05T14:39:01.433Z,3.03
2018-11-05T14:41:29.609Z,2.53
2018-11-05T14:43:57.861Z,2.53
2018-11-05T14:46:26.033Z,3.00
2018-11-05T14:48:54.241Z,2.53
2018-11-05T14:51:22.473Z,2.30
2018-11-05T14:53:50.690Z,1.90
2018-11-05T14:56:18.890Z,2.57
2018-11-05T14:58:47.049Z,2.47
2018-11-05T15:01:15.290Z,2.40
2018-11-05T15:03:43.467Z,3.23
2018-11-05T15:06:11.753Z,2.33
2018-11-05T15:08:39.979Z,2.10
2018-11-05T15:11:08.233Z,2.57
2018-11-05T15:13:36.413Z,2.97
2018-11-05T15:16:04.686Z,2.63
2018-11-05T15:18:33.078Z,2.37
2018-11-05T15:21:01.162Z,2.63
2018-11-05T15:23:29.427Z,2.37
2018-11-05T15:25:57.759Z,2.67
2018-11-05T15:28:25.921Z,2.40
2018-11-05T15:30:54.182Z,2.53
2018-11-05T15:33:22.406Z,2.70
2018-11-05T15:35:53.449Z,2.50
2018-11-05T15:38:21.687Z,3.20
2018-11-05T15:40:49.914Z,2.57
2018-11-05T15:43:18.121Z,2.87
2018-11-05T15:45:46.323Z,2.43
2018-11-05T15:48:14.525Z,3.00
2018-11-05T15:50:42.693Z,2.73
2018-11-05T15:53:11.263Z,3.70
2018-11-05T15:55:39.156Z,2.40
2018-11-05T15:58:07.383Z,2.50
2018-11-05T16:00:35.626Z,2.77
2018-11-05T16:03:03.814Z,1.73
2018-11-05T16:05:32.055Z,2.70
2018-11-05T16:08:00.273Z,2.50
2018-11-05T16:10:28.477Z,1.90
2018-11-05T16:12:56.670Z,1.90
2018-11-05T16:15:24.913Z,2.43
2018-11-05T16:17:53.117Z,2.50
2018-11-05T16:20:22.208Z,2.60
2018-11-05T16:22:51.182Z,2.60
2018-11-05T16:25:19.423Z,2.80
2018-11-05T16:27:47.687Z,2.60
2018-11-05T16:30:17.375Z,2.13
2018-11-05T16:32:46.159Z,2.00
2018-11-05T16:35:14.475Z,2.10
2018-11-05T16:37:42.789Z,1.70
2018-11-05T16:40:13.159Z,1.97
2018-11-05T16:42:41.619Z,2.03
2018-11-05T16:45:10.310Z,2.30
2018-11-05T16:47:39.189Z,2.27
2018-11-05T16:50:17.679Z,1.70
2018-11-05T16:52:45.944Z,2.10
2018-11-05T16:55:14.603Z,2.40
2018-11-05T16:57:43.328Z,1.47
2018-11-05T17:00:12.215Z,1.93
2018-11-05T17:02:40.765Z,2.30
2018-11-05T17:05:08.932Z,1.97
2018-11-05T17:07:37.145Z,1.83
2018-11-05T17:10:06.629Z,1.90
2018-11-05T17:12:34.849Z,1.93
2018-11-05T17:15:03.150Z,1.67
2018-11-05T17:17:31.373Z,1.90
2018-11-05T17:19:59.578Z,2.00
2018-11-05T17:22:27.784Z,2.30
2018-11-05T17:24:55.998Z,3.03
2018-11-05T17:27:24.187Z,2.33
2018-11-05T17:29:52.389Z,2.30
2018-11-05T17:32:20.581Z,3.80
2018-11-05T17:34:48.781Z,4.20
2018-11-05T17:37:17.253Z,3.20
2018-11-05T17:39:45.492Z,5.27
2018-11-05T17:42:13.769Z,6.60
2018-11-05T17:44:41.989Z,4.30
2018-11-05T17:47:10.205Z,2.67
2018-11-05T17:49:38.381Z,3.23
2018-11-05T17:52:06.593Z,2.10
2018-11-05T17:54:34.782Z,1.80
2018-11-05T17:57:03.047Z,1.90
2018-11-05T17:59:31.229Z,2.50
2018-11-05T18:01:59.468Z,2.10
2018-11-05T18:04:27.712Z,2.30
2018-11-05T18:06:55.902Z,2.63
2018-11-05T18:09:24.139Z,2.47
2018-11-05T18:11:52.304Z,1.80
2018-11-05T18:14:27.049Z,3.20
2018-11-05T18:16:55.273Z,2.70
2018-11-05T18:19:23.487Z,2.40
2018-11-05T18:21:51.661Z,2.40
2018-11-05T18:24:19.966Z,1.93
2018-11-05T18:26:48.058Z,2.43
2018-11-05T18:29:16.262Z,2.17
2018-11-05T18:31:44.510Z,1.53
2018-11-05T18:34:12.682Z,1.90
2018-11-05T18:36:40.897Z,2.07
2018-11-05T18:39:10.066Z,1.70
2018-11-05T18:41:38.510Z,1.83
2018-11-05T18:44:06.795Z,1.93
2018-11-05T18:46:35.161Z,1.83
2018-11-05T18:49:03.412Z,2.00
2018-11-05T18:51:31.710Z,2.10
2018-11-05T18:53:59.968Z,2.40
2018-11-05T18:56:28.392Z,1.70
2018-11-05T18:58:56.649Z,1.97
2018-11-05T19:01:24.921Z,1.87
2018-11-05T19:03:53.347Z,1.63
2018-11-05T19:06:22.353Z,2.00
2018-11-05T19:08:50.561Z,2.00
2018-11-05T19:11:19.209Z,1.87
2018-11-05T19:13:47.386Z,1.53
2018-11-05T19:16:15.646Z,1.83
2018-11-05T19:18:43.857Z,1.77
2018-11-05T19:21:12.030Z,1.80
2018-11-05T19:23:40.403Z,1.77
2018-11-05T19:26:08.769Z,2.03
2018-11-05T19:28:37.083Z,2.20
2018-11-05T19:31:05.473Z,1.90
2018-11-05T19:33:33.743Z,2.50
2018-11-05T19:36:04.234Z,1.73
2018-11-05T19:38:40.523Z,1.90
2018-11-05T19:41:08.824Z,1.43
2018-11-05T19:43:37.058Z,1.93
2018-11-05T19:46:06.599Z,1.93
2018-11-05T19:48:35.253Z,1.50
2018-11-05T19:51:03.569Z,1.50
2018-11-05T19:53:34.524Z,1.33
2018-11-05T19:56:03.056Z,1.57
2018-11-05T19:58:31.244Z,1.97
2018-11-05T20:00:59.618Z,1.70
2018-11-05T20:03:27.941Z,2.27
2018-11-05T20:05:56.204Z,2.00
2018-11-05T20:08:24.424Z,2.80
2018-11-05T20:10:54.634Z,3.30
2018-11-05T20:13:23.566Z,4.00
2018-11-05T20:15:53.000Z,2.93
2018-11-05T20:18:21.359Z,2.80
2018-11-05T20:20:49.700Z,2.00
2018-11-05T20:23:17.833Z,2.40
2018-11-05T20:25:46.201Z,2.10
2018-11-05T20:28:14.563Z,2.93
2018-11-05T20:30:42.797Z,2.13
2018-11-05T20:33:12.279Z,2.53
2018-11-05T20:35:40.289Z,4.07
2018-11-05T20:38:08.836Z,3.50
2018-11-05T20:40:37.146Z,2.93
2018-11-05T20:43:05.829Z,3.73
2018-11-05T20:45:34.048Z,2.93
2018-11-05T20:48:02.279Z,3.20
2018-11-05T20:50:30.516Z,2.73
2018-11-05T20:52:58.725Z,3.30
2018-11-05T20:55:27.172Z,3.87
2018-11-05T20:57:55.420Z,3.50
2018-11-05T21:00:23.746Z,4.00
2018-11-05T21:02:51.974Z,3.80
2018-11-05T21:05:20.233Z,3.47
2018-11-05T21:07:48.464Z,3.87
2018-11-05T21:10:16.663Z,3.10
2018-11-05T21:12:44.959Z,4.60
2018-11-05T21:15:14.741Z,4.00
2018-11-05T21:17:45.030Z,3.80
2018-11-05T21:20:13.913Z,3.83
2018-11-05T21:22:42.291Z,3.60
2018-11-05T21:25:10.537Z,4.00
2018-11-05T21:27:39.546Z,3.40
2018-11-05T21:30:09.653Z,3.90
2018-11-05T21:32:37.997Z,3.50
2018-11-05T21:35:07.826Z,22.47
2018-11-05T21:37:36.361Z,12.17
2018-11-05T21:40:05.186Z,10.20
2018-11-05T21:42:34.595Z,7.73
2018-11-05T21:45:03.178Z,6.57
2018-11-05T21:47:31.919Z,5.20
2018-11-05T21:50:00.166Z,4.07
2018-11-05T21:52:28.334Z,3.73
2018-11-05T21:54:56.626Z,4.40
2018-11-05T21:57:25.150Z,4.60
2018-11-05T21:59:53.810Z,4.03
2018-11-05T22:02:22.112Z,4.50
2018-11-05T22:04:50.425Z,4.00
2018-11-05T22:07:19.420Z,3.85
2018-11-05T22:09:47.705Z,3.77
2018-11-05T22:12:16.136Z,3.87
2018-11-05T22:14:44.311Z,2.93
2018-11-05T22:17:12.534Z,5.50
2018-11-05T22:19:40.768Z,4.83
2018-11-05T22:22:08.981Z,4.13
2018-11-05T22:24:37.202Z,4.20
2018-11-05T22:27:05.382Z,3.60
2018-11-05T22:29:33.597Z,3.50
2018-11-05T22:32:01.802Z,2.90
2018-11-05T22:34:29.982Z,2.97
2018-11-05T22:36:58.241Z,3.02
2018-11-05T22:39:26.415Z,1.90
2018-11-05T22:41:54.641Z,2.05
2018-11-05T22:44:22.844Z,1.90
2018-11-05T22:46:51.157Z,2.47
2018-11-05T22:49:19.479Z,1.92
2018-11-05T22:51:47.694Z,2.13
2018-11-05T22:54:16.009Z,1.80
2018-11-05T22:56:44.234Z,2.10
2018-11-05T22:59:12.422Z,2.17
2018-11-05T23:01:46.156Z,2.00
2018-11-05T23:04:14.390Z,2.50
2018-11-05T23:06:42.589Z,2.20
2018-11-05T23:09:10.884Z,2.10
2018-11-05T23:11:39.071Z,1.80
2018-11-05T23:14:07.286Z,1.60
2018-11-05T23:16:35.605Z,2.00
2018-11-05T23:19:04.002Z,2.12
2018-11-05T23:21:32.237Z,1.80
2018-11-05T23:24:00.417Z,1.87
2018-11-05T23:26:28.670Z,1.50
2018-11-05T23:28:56.904Z,2.20
2018-11-05T23:31:25.071Z,2.00
2018-11-05T23:33:53.269Z,1.67
2018-11-05T23:36:21.478Z,2.37
2018-11-05T23:38:49.752Z,2.00
2018-11-05T23:41:18.085Z,1.73
2018-11-05T23:43:46.286Z,2.20
2018-11-05T23:46:14.505Z,1.97
2018-11-05T23:48:42.746Z,2.60
2018-11-05T23:51:11.020Z,1.92
2018-11-05T23:53:39.293Z,2.17
2018-11-05T23:56:07.487Z,2.53
2018-11-05T23:58:35.723Z,2.60
